Time;durP1;ratioP1;P1;durP2;ratioP2;P2;SDS_P1;SDS_P2;PMS_P1;PMS_P2;Temp;Humidity;BMP_temperature;BMP_pressure;BME280_temperature;BME280_humidity;BME280_pressure;Samples;Min_cycle;Max_cycle;Signal;HPM_P1;HPM_P2
2022/11/06 00:00:18;;;;;;;1.73;1.52;;;11.60;77.80;;;;;;5083184;28;20029;-67
2022/11/06 00:02:45;;;;;;;3.08;1.75;;;11.60;77.90;;;;;;5087113;28;20032;-67
2022/11/06 00:07:55;;;;;;;1.50;1.40;;;11.60;77.90;;;;;;5089871;28;20108;-68
2022/11/06 00:10:20;;;;;;;1.63;0.90;;;11.60;77.80;;;;;;5088797;28;20114;-68
2022/11/06 00:12:46;;;;;;;3.35;1.80;;;11.60;77.80;;;;;;5089721;28;20051;-68
2022/11/06 00:15:12;;;;;;;2.85;1.70;;;11.50;77.80;;;;;;5088198;28;20036;-68
2022/11/06 00:17:38;;;;;;;1.67;1.58;;;11.50;77.90;;;;;;5089578;28;20062;-68
2022/11/06 00:20:05;;;;;;;3.22;1.05;;;11.50;78.00;;;;;;5096188;28;20043;-68
2022/11/06 00:22:35;;;;;;;4.75;1.73;;;11.50;78.10;;;;;;5082372;28;20028;-67
2022/11/06 00:25:02;;;;;;;1.90;1.65;;;11.50;78.10;;;;;;5084601;28;20051;-68
2022/11/06 00:27:28;;;;;;;2.70;1.83;;;11.40;78.20;;;;;;5087861;28;20020;-67
2022/11/06 00:29:53;;;;;;;4.72;1.85;;;11.40;78.10;;;;;;5090377;28;20027;-67
2022/11/06 00:32:19;;;;;;;2.28;1.63;;;11.50;78.10;;;;;;5089640;28;20085;-68
2022/11/06 00:34:46;;;;;;;1.58;1.20;;;11.50;78.00;;;;;;5089413;28;20028;-68
2022/11/06 00:37:11;;;;;;;1.60;1.50;;;11.60;78.00;;;;;;5087640;28;20032;-68
2022/11/06 00:39:37;;;;;;;9.65;1.52;;;11.60;77.90;;;;;;5085601;28;20506;-68
2022/11/06 00:42:03;;;;;;;1.85;1.60;;;11.60;77.90;;;;;;5083453;28;20025;-68
2022/11/06 00:44:28;;;;;;;3.45;2.30;;;11.60;77.90;;;;;;5087127;28;20023;-68
2022/11/06 00:46:54;;;;;;;2.78;1.50;;;11.60;78.50;;;;;;5089703;28;20020;-68
2022/11/06 00:49:20;;;;;;;4.15;1.73;;;11.60;77.80;;;;;;5090287;28;20035;-68
2022/11/06 00:51:45;;;;;;;2.70;1.42;;;11.60;77.90;;;;;;5095542;28;20032;-68
2022/11/06 00:54:12;;;;;;;1.13;0.93;;;11.60;77.90;;;;;;5093718;28;20396;-67
2022/11/06 00:56:38;;;;;;;2.88;1.63;;;11.60;78.10;;;;;;5103381;28;20016;-68
2022/11/06 00:59:06;;;;;;;4.95;1.38;;;11.60;78.00;;;;;;5108789;28;20386;-68
2022/11/06 01:01:35;;;;;;;2.00;1.35;;;11.60;78.00;;;;;;5093563;28;20015;-68
2022/11/06 01:04:04;;;;;;;1.42;1.33;;;11.60;78.00;;;;;;5087678;28;20459;-69
2022/11/06 01:06:39;;;;;;;2.45;1.17;;;11.60;78.00;;;;;;5092329;28;20514;-69
2022/11/06 01:09:05;;;;;;;5.20;1.85;;;11.60;78.00;;;;;;5107419;28;20423;-68
2022/11/06 01:11:39;;;;;;;3.20;1.85;;;11.60;78.00;;;;;;5079921;28;20028;-68
2022/11/06 01:14:05;;;;;;;4.10;1.48;;;11.60;78.00;;;;;;5094160;28;20020;-69
2022/11/06 01:16:32;;;;;;;1.50;1.27;;;11.50;78.00;;;;;;5099077;28;20051;-68
2022/11/06 01:18:58;;;;;;;5.35;2.35;;;11.50;78.00;;;;;;5105484;28;20072;-68
2022/11/06 01:21:33;;;;;;;5.65;1.48;;;11.50;78.10;;;;;;5105321;28;20416;-68
2022/11/06 01:24:05;;;;;;;3.50;1.40;;;11.50;78.20;;;;;;5080736;28;20020;-69
2022/11/06 01:26:31;;;;;;;2.05;1.40;;;11.50;78.10;;;;;;5094007;28;20020;-68
2022/11/06 01:28:57;;;;;;;3.70;1.42;;;11.50;78.00;;;;;;5098286;28;20024;-68
2022/11/06 01:31:25;;;;;;;3.90;1.70;;;11.50;78.10;;;;;;5092820;28;20544;-68
2022/11/06 01:33:52;;;;;;;4.15;1.77;;;11.50;78.10;;;;;;5103791;28;20016;-67
2022/11/06 01:36:19;;;;;;;1.30;1.13;;;11.50;78.10;;;;;;5092373;28;20035;-67
2022/11/06 01:38:47;;;;;;;2.13;1.33;;;11.50;78.00;;;;;;5095500;28;20035;-67
2022/11/06 01:41:20;;;;;;;2.58;1.58;;;11.60;78.00;;;;;;5088721;28;20024;-68
2022/11/06 01:43:47;;;;;;;3.38;1.48;;;11.60;77.90;;;;;;5085797;28;20435;-68
2022/11/06 01:46:13;;;;;;;3.08;1.83;;;11.60;77.80;;;;;;5091196;28;20023;-68
2022/11/06 01:48:41;;;;;;;2.53;1.50;;;11.60;77.70;;;;;;5081365;28;20029;-68
2022/11/06 01:51:08;;;;;;;1.20;1.10;;;11.60;77.70;;;;;;5098111;28;20024;-68
2022/11/06 01:53:34;;;;;;;3.53;1.38;;;11.60;77.60;;;;;;5085352;28;20020;-67
2022/11/06 01:56:03;;;;;;;2.38;1.35;;;11.60;77.70;;;;;;5100840;28;20052;-68
2022/11/06 01:58:32;;;;;;;1.95;1.27;;;11.60;77.80;;;;;;5112254;28;20027;-68
2022/11/06 02:00:58;;;;;;;3.55;1.48;;;11.50;77.80;;;;;;5100343;27;20127;-68
2022/11/06 02:03:24;;;;;;;3.22;1.60;;;11.50;77.80;;;;;;5102904;28;20516;-68
2022/11/06 02:05:50;;;;;;;6.40;1.98;;;11.50;78.00;;;;;;5100605;28;20020;-68
2022/11/06 02:08:18;;;;;;;2.45;1.63;;;11.40;78.00;;;;;;5090598;28;20024;-68
2022/11/06 02:10:45;;;;;;;1.25;1.00;;;11.50;77.90;;;;;;5101627;28;20032;-67
2022/11/06 02:13:25;;;;;;;5.63;1.42;;;11.50;77.90;;;;;;5096491;28;20505;-69
2022/11/06 02:16:08;;;;;;;2.70;1.10;;;11.40;77.90;;;;;;5092050;28;20039;-68
2022/11/06 02:18:48;;;;;;;4.72;1.58;;;11.50;78.00;;;;;;5091379;28;20035;-68
2022/11/06 02:21:22;;;;;;;1.63;1.23;;;11.40;78.00;;;;;;5091394;28;20449;-68
2022/11/06 02:23:51;;;;;;;1.60;1.00;;;11.40;78.00;;;;;;5078895;28;20017;-67
2022/11/06 02:26:33;;;;;;;3.28;1.23;;;11.40;77.90;;;;;;5084991;28;20033;-68
2022/11/06 02:29:04;;;;;;;2.35;1.05;;;11.50;78.00;;;;;;5084925;28;20043;-67
2022/11/06 02:31:34;;;;;;;0.93;0.93;;;11.50;77.90;;;;;;5092368;28;20036;-67
2022/11/06 02:34:12;;;;;;;1.45;1.30;;;11.40;77.90;;;;;;5092299;28;20024;-68
2022/11/06 02:36:46;;;;;;;1.75;1.13;;;11.50;78.00;;;;;;5091409;28;20503;-67
2022/11/06 02:39:17;;;;;;;2.20;1.40;;;11.50;78.00;;;;;;5092527;28;20020;-67
2022/11/06 02:41:46;;;;;;;1.50;1.25;;;11.50;78.00;;;;;;5092169;28;20021;-67
2022/11/06 02:44:20;;;;;;;2.42;0.80;;;11.50;77.80;;;;;;5085380;28;20016;-67
2022/11/06 02:46:51;;;;;;;1.40;1.20;;;11.50;77.70;;;;;;5096704;28;20468;-67
2022/11/06 02:49:20;;;;;;;1.30;0.93;;;11.50;77.80;;;;;;5081367;28;20620;-67
2022/11/06 02:51:49;;;;;;;1.77;1.10;;;11.50;77.90;;;;;;5103100;28;20122;-68
2022/11/06 02:54:18;;;;;;;4.05;1.20;;;11.50;78.00;;;;;;5106311;28;20024;-67
2022/11/06 02:56:47;;;;;;;3.40;1.00;;;11.50;78.00;;;;;;5100102;28;20372;-67
2022/11/06 02:59:27;;;;;;;3.80;1.35;;;11.50;77.90;;;;;;5112474;28;20031;-67
2022/11/06 03:01:59;;;;;;;2.00;1.13;;;11.50;77.90;;;;;;5112577;28;20065;-68
2022/11/06 03:04:54;;;;;;;1.40;0.90;;;11.50;78.00;;;;;;5097095;28;20024;-69
2022/11/06 03:07:57;;;;;;;2.05;1.08;;;11.50;77.90;;;;;;5097045;28;20036;-68
2022/11/06 03:10:27;;;;;;;2.22;1.33;;;11.50;77.90;;;;;;5098932;28;20047;-68
2022/11/06 03:13:03;;;;;;;3.65;1.38;;;11.50;78.00;;;;;;5104796;28;20505;-68
2022/11/06 03:15:42;;;;;;;2.00;1.23;;;11.50;77.90;;;;;;5111860;28;20421;-69
2022/11/06 03:18:22;;;;;;;1.80;0.98;;;11.50;77.80;;;;;;5112205;28;20027;-68
2022/11/06 03:21:09;;;;;;;1.30;0.80;;;11.60;77.70;;;;;;5111214;28;20027;-68
2022/11/06 03:23:46;;;;;;;1.63;0.95;;;11.60;77.80;;;;;;5096383;28;20022;-68
2022/11/06 03:26:18;;;;;;;4.45;2.25;;;11.50;77.90;;;;;;5110485;28;20019;-68
2022/11/06 03:29:03;;;;;;;6.72;1.23;;;11.50;77.90;;;;;;5111934;28;20046;-68
2022/11/06 03:31:47;;;;;;;3.05;1.02;;;11.50;77.80;;;;;;5111878;28;20354;-68
2022/11/06 03:34:21;;;;;;;2.63;0.95;;;11.50;78.00;;;;;;5111455;28;20436;-68
2022/11/06 03:36:55;;;;;;;3.08;1.15;;;11.50;78.00;;;;;;5110893;28;20089;-68
2022/11/06 03:39:27;;;;;;;5.97;1.23;;;11.50;78.00;;;;;;5111807;28;20056;-69
2022/11/06 03:42:00;;;;;;;1.25;1.05;;;11.60;78.00;;;;;;5097306;28;20106;-69
2022/11/06 03:44:26;;;;;;;;;;;11.60;77.90;;;;;;5105534;28;20095;-69
2022/11/06 03:47:13;;;;;;;1.38;1.13;;;11.60;77.80;;;;;;5110433;28;20263;-69
2022/11/06 03:49:45;;;;;;;3.42;1.35;;;11.60;77.80;;;;;;5097679;28;20063;-68
2022/11/06 03:52:15;;;;;;;;;;;11.50;77.90;;;;;;5090588;28;20380;-68
2022/11/06 03:54:51;;;;;;;2.25;1.23;;;11.50;77.90;;;;;;5088885;28;19908;-69
2022/11/06 03:57:24;;;;;;;1.27;0.98;;;11.50;78.00;;;;;;5090375;28;20038;-68
2022/11/06 03:59:57;;;;;;;1.42;1.27;;;11.50;77.80;;;;;;5090862;28;20502;-69
2022/11/06 04:02:27;;;;;;;1.55;1.10;;;11.60;77.90;;;;;;5078379;28;20016;-68
2022/11/06 04:05:01;;;;;;;1.42;1.15;;;11.60;77.80;;;;;;5087039;28;20030;-68
2022/11/06 04:16:08;;;;;;;1.27;1.10;;;11.60;78.00;;;;;;5095508;28;20059;-68
2022/11/06 04:18:34;;;;;;;4.28;1.63;;;11.60;78.00;;;;;;5089605;28;20125;-69
2022/11/06 04:21:21;;;;;;;3.80;1.10;;;11.60;78.00;;;;;;5089677;28;20117;-70
2022/11/06 04:27:22;;;;;;;1.95;1.20;;;11.60;78.00;;;;;;5088384;28;20046;-68
2022/11/06 04:30:04;;;;;;;5.43;1.17;;;11.60;78.10;;;;;;5090203;28;20086;-68
2022/11/06 04:32:49;;;;;;;3.72;1.30;;;11.60;78.10;;;;;;5089327;28;20038;-69
2022/11/06 04:35:26;;;;;;;1.75;1.10;;;11.60;78.10;;;;;;5086665;28;20078;-69
2022/11/06 04:38:22;;;;;;;3.30;0.98;;;11.60;78.00;;;;;;5089391;28;20383;-69
2022/11/06 04:41:12;;;;;;;1.27;0.80;;;11.70;77.90;;;;;;5080874;28;20136;-69
2022/11/06 04:43:50;;;;;;;2.72;0.98;;;11.70;77.90;;;;;;5083672;28;20016;-68
2022/11/06 04:46:45;;;;;;;2.50;0.82;;;11.70;77.90;;;;;;5090557;28;20089;-68
2022/11/06 04:49:13;;;;;;;2.42;1.15;;;11.70;77.80;;;;;;5089568;28;20035;-68
2022/11/06 04:51:39;;;;;;;0.93;0.80;;;11.70;78.00;;;;;;5108220;28;20020;-70
2022/11/06 04:54:08;;;;;;;2.97;0.68;;;11.80;77.90;;;;;;5096292;28;20044;-68
2022/11/06 04:56:35;;;;;;;3.28;1.05;;;11.80;77.80;;;;;;5082175;28;20016;-68
2022/11/06 04:59:03;;;;;;;0.93;0.88;;;11.80;77.90;;;;;;5110389;28;20099;-68
2022/11/06 05:01:28;;;;;;;1.30;0.98;;;11.80;77.90;;;;;;5090695;28;20474;-68
2022/11/06 05:04:00;;;;;;;0.90;0.50;;;11.80;77.90;;;;;;5087817;28;20031;-69
2022/11/06 05:06:26;;;;;;;1.17;1.00;;;11.80;77.90;;;;;;5069778;28;20423;-68
2022/11/06 05:08:51;;;;;;;1.80;1.00;;;11.80;77.90;;;;;;5089331;28;20116;-69
2022/11/06 05:11:17;;;;;;;1.23;0.80;;;11.80;78.00;;;;;;5087872;28;20479;-68
2022/11/06 05:13:43;;;;;;;3.08;1.20;;;11.80;78.00;;;;;;5088613;28;20568;-68
2022/11/06 05:16:09;;;;;;;1.08;0.57;;;11.80;78.00;;;;;;5089229;28;20040;-68
2022/11/06 05:18:35;;;;;;;1.35;0.82;;;11.80;78.00;;;;;;5090698;28;20028;-68
2022/11/06 05:23:46;;;;;;;4.35;0.50;;;11.80;78.00;;;;;;5089172;28;20039;-70
2022/11/06 05:26:12;;;;;;;1.48;0.60;;;11.70;78.10;;;;;;5088818;28;20746;-69
2022/11/06 05:28:38;;;;;;;2.95;1.00;;;11.80;78.20;;;;;;5091898;28;20028;-69
2022/11/06 05:31:04;;;;;;;0.57;0.52;;;11.80;78.20;;;;;;5091818;28;20028;-70
2022/11/06 05:33:30;;;;;;;1.10;0.70;;;11.80;78.10;;;;;;5093868;28;20475;-68
2022/11/06 05:36:00;;;;;;;1.48;0.88;;;11.90;78.10;;;;;;5091473;28;20098;-69
2022/11/06 05:38:25;;;;;;;0.77;0.60;;;11.90;78.10;;;;;;5091148;28;20535;-69
2022/11/06 05:40:51;;;;;;;2.92;0.82;;;11.90;78.00;;;;;;5090041;28;20020;-67
2022/11/06 05:43:17;;;;;;;0.93;0.80;;;11.90;77.90;;;;;;5089727;28;20028;-68
2022/11/06 05:45:42;;;;;;;3.88;1.00;;;12.00;78.00;;;;;;5091801;28;20039;-67
2022/11/06 05:48:08;;;;;;;0.70;0.50;;;11.90;77.90;;;;;;5092555;28;20509;-67
2022/11/06 05:50:33;;;;;;;2.65;0.93;;;11.90;77.90;;;;;;5091971;28;20073;-68
2022/11/06 05:52:59;;;;;;;0.55;0.50;;;12.00;78.00;;;;;;5093060;28;20051;-68
2022/11/06 05:55:25;;;;;;;1.10;0.70;;;12.00;78.00;;;;;;5092097;28;20100;-68
2022/11/06 05:57:50;;;;;;;0.80;0.80;;;11.90;77.90;;;;;;5092636;28;21106;-67
2022/11/06 06:00:16;;;;;;;2.35;1.02;;;12.00;78.00;;;;;;5089589;28;20513;-67
2022/11/06 06:02:42;;;;;;;4.28;1.00;;;11.90;78.00;;;;;;5091431;28;20109;-68
2022/11/06 06:05:08;;;;;;;1.90;0.63;;;11.90;78.10;;;;;;5092191;28;20032;-67
2022/11/06 06:07:34;;;;;;;8.85;1.10;;;12.00;78.00;;;;;;5088842;28;20084;-68
2022/11/06 06:10:00;;;;;;;0.60;0.60;;;11.90;78.10;;;;;;5093359;28;20268;-69
2022/11/06 06:12:26;;;;;;;2.58;1.08;;;12.00;78.20;;;;;;5092132;28;20047;-68
2022/11/06 06:14:52;;;;;;;1.08;0.75;;;11.90;78.10;;;;;;5091583;28;20072;-68
2022/11/06 06:17:19;;;;;;;5.75;1.27;;;11.90;78.20;;;;;;5092536;28;20046;-69
2022/11/06 06:19:45;;;;;;;0.75;0.65;;;11.90;78.20;;;;;;5090632;28;20055;-68
2022/11/06 06:22:11;;;;;;;1.25;0.88;;;11.90;78.20;;;;;;5088869;28;20472;-69
2022/11/06 06:24:37;;;;;;;6.03;0.95;;;11.90;78.30;;;;;;5093215;28;20028;-68
2022/11/06 06:27:03;;;;;;;1.13;0.55;;;11.90;78.30;;;;;;5085611;28;20033;-69
2022/11/06 06:29:29;;;;;;;1.63;0.63;;;11.80;78.30;;;;;;5074287;28;20027;-69
2022/11/06 06:31:55;;;;;;;1.33;0.90;;;11.90;78.50;;;;;;5062908;28;20024;-70
2022/11/06 06:34:20;;;;;;;1.50;0.95;;;11.80;78.40;;;;;;5083973;28;20024;-69
2022/11/06 06:36:52;;;;;;;4.85;1.10;;;11.80;78.50;;;;;;5084404;28;20021;-70
2022/11/06 06:39:19;;;;;;;0.82;0.73;;;11.80;78.40;;;;;;5073520;28;20096;-69
2022/11/06 06:41:46;;;;;;;1.08;0.98;;;11.80;78.50;;;;;;5082178;28;20024;-69
2022/11/06 06:44:12;;;;;;;6.78;1.38;;;11.80;78.50;;;;;;5084650;28;20087;-69
2022/11/06 06:46:38;;;;;;;1.23;0.73;;;11.90;78.50;;;;;;5081557;28;20480;-69
2022/11/06 06:49:04;;;;;;;0.85;0.50;;;11.90;78.50;;;;;;5076749;28;20052;-69
2022/11/06 06:51:30;;;;;;;2.38;1.00;;;11.90;78.50;;;;;;5076445;28;20059;-69
2022/11/06 06:53:55;;;;;;;2.50;0.85;;;11.90;78.40;;;;;;5083626;28;20025;-69
2022/11/06 06:56:21;;;;;;;0.73;0.63;;;11.90;78.30;;;;;;5084046;28;20040;-69
2022/11/06 06:58:47;;;;;;;1.67;1.05;;;12.00;78.30;;;;;;5075608;28;20043;-69
2022/11/06 07:01:13;;;;;;;3.25;0.88;;;11.90;78.30;;;;;;5080198;28;20384;-69
2022/11/06 07:03:39;;;;;;;1.25;0.90;;;11.90;78.30;;;;;;5084921;28;20440;-68
2022/11/06 07:06:05;;;;;;;0.60;0.57;;;11.90;78.30;;;;;;5073942;28;20032;-68
2022/11/06 07:08:32;;;;;;;1.00;0.63;;;12.00;78.40;;;;;;5080292;28;20052;-69
2022/11/06 07:11:07;;;;;;;0.63;0.63;;;12.00;78.30;;;;;;5090778;28;20034;-69
2022/11/06 07:13:34;;;;;;;1.60;0.70;;;12.00;78.20;;;;;;5089341;28;20044;-69
2022/11/06 07:16:02;;;;;;;0.47;0.47;;;12.00;78.40;;;;;;5090906;28;20479;-68
2022/11/06 07:18:28;;;;;;;2.45;1.40;;;12.00;78.40;;;;;;5089838;28;20032;-69
2022/11/06 07:20:54;;;;;;;0.85;0.80;;;12.00;78.90;;;;;;5090608;28;20054;-69
2022/11/06 07:23:19;;;;;;;1.00;0.80;;;12.00;78.30;;;;;;5090874;28;20096;-69
2022/11/06 07:25:53;;;;;;;1.08;0.70;;;12.10;78.20;;;;;;5081479;28;20024;-69
2022/11/06 07:28:19;;;;;;;1.23;0.90;;;12.10;78.00;;;;;;5087791;28;20016;-68
2022/11/06 07:30:45;;;;;;;1.67;0.75;;;12.20;78.00;;;;;;5081260;28;20074;-69
2022/11/06 07:33:11;;;;;;;0.75;0.73;;;12.20;77.90;;;;;;5076326;28;20095;-69
2022/11/06 07:35:37;;;;;;;2.25;0.82;;;12.20;77.80;;;;;;5080896;28;20028;-68
2022/11/06 07:38:06;;;;;;;0.93;0.55;;;12.20;77.80;;;;;;5086080;28;20044;-69
2022/11/06 07:40:35;;;;;;;1.50;1.02;;;12.20;77.80;;;;;;5075507;28;20028;-68
2022/11/06 07:43:09;;;;;;;1.13;0.70;;;12.30;77.80;;;;;;5077375;28;20029;-68
2022/11/06 07:45:36;;;;;;;1.45;0.60;;;12.30;77.80;;;;;;5083747;28;20111;-69
2022/11/06 07:48:02;;;;;;;1.23;0.68;;;12.30;77.70;;;;;;5081744;28;20032;-68
2022/11/06 07:50:28;;;;;;;1.08;0.60;;;12.40;77.70;;;;;;5076137;28;20024;-68
2022/11/06 07:52:54;;;;;;;2.33;1.27;;;12.40;77.60;;;;;;5084485;28;20066;-68
2022/11/06 07:55:20;;;;;;;2.40;1.38;;;12.40;77.50;;;;;;5088670;28;20067;-68
2022/11/06 07:57:46;;;;;;;1.17;0.70;;;12.50;77.50;;;;;;5090032;28;20055;-68
2022/11/06 08:00:12;;;;;;;1.20;0.70;;;12.50;77.60;;;;;;5077818;28;20509;-68
2022/11/06 08:02:38;;;;;;;0.77;0.38;;;12.50;77.50;;;;;;5077940;28;20158;-68
2022/11/06 08:05:04;;;;;;;0.75;0.50;;;12.50;77.50;;;;;;5084367;28;20027;-68
2022/11/06 08:07:30;;;;;;;0.50;0.50;;;12.60;77.50;;;;;;5085300;28;20039;-69
2022/11/06 08:09:55;;;;;;;2.33;0.65;;;12.60;77.30;;;;;;5085470;28;20028;-69
2022/11/06 08:12:21;;;;;;;1.25;0.82;;;12.60;77.30;;;;;;5087564;28;20070;-69
2022/11/06 08:14:46;;;;;;;3.58;0.47;;;12.60;77.30;;;;;;5082052;28;20047;-68
2022/11/06 08:17:12;;;;;;;0.75;0.60;;;12.60;77.30;;;;;;5079339;28;20037;-68
2022/11/06 08:19:38;;;;;;;1.08;0.85;;;12.70;77.30;;;;;;5082868;28;20084;-66
2022/11/06 08:22:03;;;;;;;2.15;1.25;;;12.70;77.20;;;;;;5080448;28;20039;-68
2022/11/06 08:24:29;;;;;;;1.15;0.95;;;12.70;77.10;;;;;;5076997;28;20387;-68
2022/11/06 08:26:56;;;;;;;0.68;0.68;;;12.80;77.00;;;;;;5075949;28;20024;-64
2022/11/06 08:29:21;;;;;;;1.30;0.70;;;12.80;76.90;;;;;;5077840;28;20071;-64
2022/11/06 08:31:47;;;;;;;3.08;1.30;;;12.80;76.90;;;;;;5078976;28;20485;-66
2022/11/06 08:34:13;;;;;;;0.88;0.88;;;12.90;76.90;;;;;;5081577;28;20020;-64
2022/11/06 08:36:44;;;;;;;1.65;0.85;;;12.90;76.80;;;;;;5078697;28;20036;-64
2022/11/06 08:39:11;;;;;;;1.42;0.57;;;12.90;76.70;;;;;;5081346;28;20534;-73
2022/11/06 08:41:38;;;;;;;1.33;0.60;;;13.00;76.70;;;;;;5081327;28;20534;-72
2022/11/06 08:44:04;;;;;;;1.38;0.82;;;13.00;76.50;;;;;;5087953;28;20495;-74
2022/11/06 08:46:30;;;;;;;1.10;0.82;;;13.00;76.40;;;;;;5086082;28;20031;-75
2022/11/06 08:48:55;;;;;;;4.95;1.10;;;13.10;76.40;;;;;;5086838;28;20399;-74
2022/11/06 08:51:21;;;;;;;1.00;0.70;;;13.10;76.30;;;;;;5088642;28;20028;-67
2022/11/06 08:53:47;;;;;;;0.77;0.63;;;13.10;76.30;;;;;;5086220;28;20035;-68
2022/11/06 08:56:13;;;;;;;1.98;0.63;;;13.10;76.30;;;;;;5083323;28;20031;-69
2022/11/06 08:58:39;;;;;;;4.35;0.80;;;13.10;76.20;;;;;;5082111;28;20040;-69
2022/11/06 09:01:04;;;;;;;0.75;0.57;;;13.20;76.10;;;;;;5085352;28;20093;-64
2022/11/06 09:03:30;;;;;;;0.70;0.57;;;13.20;76.00;;;;;;5087160;28;20455;-70
2022/11/06 09:05:56;;;;;;;2.08;0.77;;;13.20;76.00;;;;;;5084302;28;20521;-67
2022/11/06 09:08:23;;;;;;;1.98;0.50;;;13.20;76.00;;;;;;5080913;28;20028;-67
2022/11/06 09:10:49;;;;;;;1.10;0.70;;;13.20;75.90;;;;;;5088214;28;20024;-73
2022/11/06 09:13:16;;;;;;;1.88;1.05;;;13.30;76.00;;;;;;5085294;28;20052;-71
2022/11/06 09:15:41;;;;;;;1.98;0.93;;;13.30;75.80;;;;;;5085749;28;20078;-70
2022/11/06 09:18:07;;;;;;;0.65;0.55;;;13.30;75.90;;;;;;5079623;28;20036;-72
2022/11/06 09:20:34;;;;;;;3.20;0.65;;;13.20;75.90;;;;;;5080167;28;20456;-74
2022/11/06 09:23:01;;;;;;;0.98;0.80;;;13.30;75.90;;;;;;5079355;28;20371;-72
2022/11/06 09:25:28;;;;;;;1.95;1.35;;;13.30;75.80;;;;;;5077752;28;20027;-75
2022/11/06 09:27:53;;;;;;;2.85;0.80;;;13.30;75.80;;;;;;5078234;28;20547;-74
2022/11/06 09:30:21;;;;;;;0.55;0.55;;;13.30;75.80;;;;;;5091862;28;20102;-74
2022/11/06 09:32:50;;;;;;;2.47;0.95;;;13.30;75.70;;;;;;5082487;28;20036;-73
2022/11/06 09:35:16;;;;;;;3.20;1.13;;;13.40;75.60;;;;;;5076574;28;20042;-73
2022/11/06 09:37:41;;;;;;;1.65;0.77;;;13.40;75.40;;;;;;5081498;28;20391;-72
2022/11/06 09:40:20;;;;;;;0.70;0.50;;;13.50;75.30;;;;;;5082684;28;20036;-71
2022/11/06 09:42:59;;;;;;;2.80;1.38;;;13.60;75.10;;;;;;5083168;28;20017;-67
2022/11/06 09:45:29;;;;;;;5.78;1.20;;;13.60;74.80;;;;;;5080943;28;20430;-71
2022/11/06 09:48:02;;;;;;;0.77;0.60;;;13.60;74.80;;;;;;5077799;28;20074;-72
2022/11/06 09:50:34;;;;;;;1.25;0.95;;;13.70;74.90;;;;;;5080097;28;20020;-75
2022/11/06 09:53:15;;;;;;;2.75;0.73;;;13.70;74.80;;;;;;5085181;28;20115;-73
2022/11/06 09:55:43;;;;;;;1.00;0.50;;;13.70;74.80;;;;;;5084502;28;20426;-73
2022/11/06 09:58:23;;;;;;;1.48;0.77;;;13.80;75.00;;;;;;5080938;28;20028;-73
2022/11/06 10:00:51;;;;;;;1.02;0.75;;;13.80;74.80;;;;;;5084356;28;20421;-73
2022/11/06 10:03:21;;;;;;;3.70;1.33;;;13.80;74.90;;;;;;5081736;28;20028;-66
2022/11/06 10:05:47;;;;;;;1.30;0.52;;;13.90;74.90;;;;;;5076001;28;20035;-67
2022/11/06 10:08:28;;;;;;;0.50;0.50;;;13.90;74.90;;;;;;5079141;28;20028;-70
2022/11/06 10:10:58;;;;;;;2.50;1.15;;;14.00;74.70;;;;;;5082713;28;20055;-69
2022/11/06 10:13:56;;;;;;;1.60;0.90;;;13.90;74.80;;;;;;5076907;28;20037;-71
2022/11/06 10:16:31;;;;;;;2.75;1.17;;;14.00;74.60;;;;;;5077782;28;20028;-71
2022/11/06 10:19:00;;;;;;;1.48;0.40;;;14.00;74.50;;;;;;5081068;28;20070;-67
2022/11/06 10:21:53;;;;;;;2.05;1.10;;;14.00;74.20;;;;;;5083837;28;20461;-67
2022/11/06 10:24:44;;;;;;;1.45;0.98;;;14.00;74.00;;;;;;5086953;28;20116;-67
2022/11/06 10:27:24;;;;;;;2.40;1.13;;;14.00;74.00;;;;;;5086146;28;20077;-72
2022/11/06 10:30:00;;;;;;;1.00;0.68;;;14.00;74.10;;;;;;5084135;28;20032;-71
2022/11/06 10:32:47;;;;;;;1.17;0.80;;;14.00;73.90;;;;;;5088732;28;20028;-71
2022/11/06 10:35:40;;;;;;;4.18;0.90;;;13.90;73.40;;;;;;5087154;28;20123;-67
2022/11/06 10:38:10;;;;;;;1.45;0.80;;;13.80;73.50;;;;;;5085929;28;20039;-65
2022/11/06 10:40:37;;;;;;;0.70;0.70;;;13.80;73.50;;;;;;5088203;28;20024;-68
2022/11/06 10:43:21;;;;;;;0.82;0.57;;;13.70;73.50;;;;;;5079131;28;20024;-68
2022/11/06 10:45:55;;;;;;;0.90;0.52;;;13.80;73.30;;;;;;5089254;28;20464;-68
2022/11/06 10:48:30;;;;;;;1.20;0.60;;;13.80;73.40;;;;;;5088396;28;20466;-68
2022/11/06 10:51:16;;;;;;;8.50;0.85;;;13.90;73.20;;;;;;5088280;28;20032;-68
2022/11/06 10:53:49;;;;;;;1.33;1.08;;;14.00;73.00;;;;;;5064525;28;20089;-67
2022/11/06 10:56:14;;;;;;;1.10;1.00;;;14.10;72.40;;;;;;5082039;28;20039;-68
2022/11/06 10:58:40;;;;;;;1.10;1.00;;;14.00;72.20;;;;;;5077485;28;20040;-68
2022/11/06 11:01:10;;;;;;;3.50;0.88;;;14.00;72.20;;;;;;5085990;28;20021;-68
2022/11/06 11:03:41;;;;;;;3.10;1.20;;;14.00;72.10;;;;;;5087343;28;20077;-68
2022/11/06 11:06:07;;;;;;;1.52;0.80;;;14.10;72.10;;;;;;5085230;28;20105;-70
2022/11/06 11:08:39;;;;;;;0.70;0.60;;;14.20;72.00;;;;;;5087228;28;20422;-69
2022/11/06 11:11:14;;;;;;;3.23;0.83;;;14.30;71.90;;;;;;5075755;28;20491;-69
2022/11/06 11:13:46;;;;;;;5.75;0.65;;;14.40;71.90;;;;;;5083860;28;20766;-70
2022/11/06 11:16:22;;;;;;;1.85;0.90;;;14.40;71.60;;;;;;5079209;28;20063;-69
2022/11/06 11:18:49;;;;;;;1.23;0.77;;;14.40;71.50;;;;;;5080887;28;20473;-67
2022/11/06 11:21:17;;;;;;;1.30;0.57;;;14.40;71.60;;;;;;5082943;28;20032;-67
2022/11/06 11:24:07;;;;;;;0.98;0.60;;;14.40;71.70;;;;;;5083313;28;20110;-67
2022/11/06 11:26:39;;;;;;;1.48;0.80;;;14.40;71.60;;;;;;5075790;28;20024;-66
2022/11/06 11:29:20;;;;;;;1.08;0.70;;;14.40;71.50;;;;;;5075609;28;20103;-68
2022/11/06 11:31:52;;;;;;;1.85;0.60;;;14.40;71.20;;;;;;5078983;28;20025;-68
2022/11/06 11:34:27;;;;;;;1.53;0.83;;;14.30;71.40;;;;;;5079105;28;20032;-68
2022/11/06 11:37:05;;;;;;;0.57;0.38;;;14.30;71.40;;;;;;5079144;28;20364;-68
2022/11/06 11:39:38;;;;;;;1.73;0.85;;;14.30;71.50;;;;;;5087806;28;20028;-67
2022/11/06 11:42:25;;;;;;;0.75;0.68;;;14.30;71.30;;;;;;5086439;28;20039;-67
2022/11/06 11:45:09;;;;;;;0.60;0.60;;;14.40;71.10;;;;;;5100059;28;20018;-68
2022/11/06 11:47:45;;;;;;;1.45;0.65;;;14.40;70.70;;;;;;5083576;28;20031;-70
2022/11/06 11:50:23;;;;;;;0.57;0.57;;;14.40;70.60;;;;;;5086124;28;20121;-71
2022/11/06 11:52:53;;;;;;;2.42;1.40;;;14.40;70.40;;;;;;5090882;28;20044;-70
2022/11/06 11:55:24;;;;;;;3.55;0.93;;;14.40;70.60;;;;;;5087485;28;20024;-71
2022/11/06 11:57:52;;;;;;;3.35;0.77;;;14.50;70.50;;;;;;5086604;28;20398;-72
2022/11/06 12:00:19;;;;;;;0.85;0.65;;;14.50;70.40;;;;;;5088195;28;20028;-71
2022/11/06 12:02:49;;;;;;;0.40;0.40;;;14.60;70.40;;;;;;5074024;28;20556;-71
2022/11/06 12:05:34;;;;;;;0.98;0.88;;;14.60;70.20;;;;;;5090619;28;20490;-71
2022/11/06 12:08:00;;;;;;;2.55;0.95;;;14.70;69.90;;;;;;5097398;28;20020;-70
2022/11/06 12:10:41;;;;;;;1.83;0.60;;;14.60;69.60;;;;;;5089347;28;20028;-72
2022/11/06 12:13:18;;;;;;;0.60;0.55;;;14.60;69.20;;;;;;5086346;28;20430;-72
2022/11/06 12:16:02;;;;;;;1.73;0.80;;;14.70;69.10;;;;;;5090393;28;20055;-67
2022/11/06 12:18:30;;;;;;;1.88;0.70;;;14.80;68.60;;;;;;5082198;28;20023;-68
2022/11/06 12:21:25;;;;;;;3.30;1.20;;;14.70;68.20;;;;;;5080245;28;20527;-68
2022/11/06 12:24:19;;;;;;;0.77;0.60;;;14.70;68.30;;;;;;5073990;28;20055;-68
2022/11/06 12:26:47;;;;;;;0.75;0.70;;;14.60;68.40;;;;;;5085925;28;20023;-68
2022/11/06 12:29:20;;;;;;;2.63;0.73;;;14.50;68.30;;;;;;5086158;28;20032;-68
2022/11/06 12:32:06;;;;;;;0.45;0.30;;;14.50;68.30;;;;;;5077032;28;20039;-68
2022/11/06 12:34:41;;;;;;;0.70;0.60;;;14.40;68.10;;;;;;5083939;28;20101;-67
2022/11/06 12:37:25;;;;;;;1.58;0.80;;;14.30;68.50;;;;;;5091448;28;20066;-68
2022/11/06 12:40:12;;;;;;;0.60;0.50;;;14.30;68.80;;;;;;5082639;28;20020;-68
2022/11/06 12:42:40;;;;;;;1.10;0.77;;;14.30;68.80;;;;;;5072324;28;20074;-68
2022/11/06 12:45:11;;;;;;;0.40;0.40;;;14.30;69.10;;;;;;5074600;28;20056;-68
2022/11/06 12:47:44;;;;;;;1.15;0.40;;;14.30;69.10;;;;;;5078273;28;20047;-67
2022/11/06 12:50:32;;;;;;;;;;;14.40;68.80;;;;;;5089628;28;20043;-68
2022/11/06 12:53:26;;;;;;;4.05;0.43;;;14.30;68.90;;;;;;5073555;28;19958;-69
2022/11/06 12:56:06;;;;;;;1.10;0.40;;;14.40;69.00;;;;;;5074113;28;20034;-68
2022/11/06 12:58:59;;;;;;;1.30;0.60;;;14.30;68.60;;;;;;5081270;28;20019;-68
2022/11/06 13:01:37;;;;;;;0.75;0.47;;;14.30;68.70;;;;;;5101344;28;20098;-66
2022/11/06 13:04:05;;;;;;;0.65;0.43;;;14.30;68.90;;;;;;5080239;28;20020;-66
2022/11/06 13:06:59;;;;;;;3.30;0.68;;;14.30;68.60;;;;;;5083740;28;20024;-68
2022/11/06 13:09:31;;;;;;;0.90;0.70;;;14.40;68.70;;;;;;5080560;28;20033;-68
2022/11/06 13:12:26;;;;;;;0.70;0.60;;;14.40;68.70;;;;;;5080054;28;20031;-66
2022/11/06 13:14:57;;;;;;;1.27;0.70;;;14.30;68.40;;;;;;5078173;28;20104;-64
2022/11/06 13:17:31;;;;;;;1.02;0.73;;;14.30;68.70;;;;;;5086141;28;20032;-67
2022/11/06 13:20:16;;;;;;;2.88;0.60;;;14.40;68.90;;;;;;5086336;28;20522;-65
2022/11/06 13:22:48;;;;;;;0.70;0.60;;;14.40;68.80;;;;;;5085209;28;20028;-63
2022/11/06 13:25:19;;;;;;;0.93;0.77;;;14.40;68.80;;;;;;5082305;28;20020;-63